sensor_id;sensor_type;location;lat;lon;timestamp;P1;durP1;ratioP1;P2;durP2;ratioP2
18510;SDS011;9384;48.044;11.616;2022-08-14T00:01:48;4.60;;;4.30;;
18510;SDS011;9384;48.044;11.616;2022-08-14T00:04:16;4.03;;;3.83;;
18510;SDS011;9384;48.044;11.616;2022-08-14T00:06:43;3.97;;;3.77;;
18510;SDS011;9384;48.044;11.616;2022-08-14T00:09:11;4.67;;;4.37;;
18510;SDS011;9384;48.044;11.616;2022-08-14T00:11:38;4.30;;;4.03;;
18510;SDS011;9384;48.044;11.616;2022-08-14T00:14:05;4.50;;;4.20;;
18510;SDS011;9384;48.044;11.616;2022-08-14T00:16:32;4.27;;;4.00;;
18510;SDS011;9384;48.044;11.616;2022-08-14T00:18:59;4.23;;;4.03;;
18510;SDS011;9384;48.044;11.616;2022-08-14T00:21:28;4.23;;;4.00;;
18510;SDS011;9384;48.044;11.616;2022-08-14T00:23:56;3.80;;;3.60;;
18510;SDS011;9384;48.044;11.616;2022-08-14T00:26:23;4.60;;;4.20;;
18510;SDS011;9384;48.044;11.616;2022-08-14T00:28:51;5.13;;;4.57;;
18510;SDS011;9384;48.044;11.616;2022-08-14T00:31:19;4.57;;;4.27;;
18510;SDS011;9384;48.044;11.616;2022-08-14T00:33:46;4.40;;;4.10;;
18510;SDS011;9384;48.044;11.616;2022-08-14T00:38:48;4.43;;;4.03;;
18510;SDS011;9384;48.044;11.616;2022-08-14T00:41:16;4.07;;;3.87;;
18510;SDS011;9384;48.044;11.616;2022-08-14T00:43:43;4.40;;;4.00;;
18510;SDS011;9384;48.044;11.616;2022-08-14T00:46:11;4.30;;;4.00;;
18510;SDS011;9384;48.044;11.616;2022-08-14T00:48:39;3.70;;;3.57;;
18510;SDS011;9384;48.044;11.616;2022-08-14T00:51:07;4.73;;;4.33;;
18510;SDS011;9384;48.044;11.616;2022-08-14T00:53:35;4.33;;;4.03;;
18510;SDS011;9384;48.044;11.616;2022-08-14T00:56:04;4.43;;;4.13;;
18510;SDS011;9384;48.044;11.616;2022-08-14T00:58:31;4.33;;;3.93;;
18510;SDS011;9384;48.044;11.616;2022-08-14T01:01:00;5.30;;;3.67;;
18510;SDS011;9384;48.044;11.616;2022-08-14T01:03:27;3.90;;;3.70;;
18510;SDS011;9384;48.044;11.616;2022-08-14T01:05:55;3.57;;;3.47;;
18510;SDS011;9384;48.044;11.616;2022-08-14T01:08:23;4.37;;;4.07;;
18510;SDS011;9384;48.044;11.616;2022-08-14T01:10:51;4.17;;;3.97;;
18510;SDS011;9384;48.044;11.616;2022-08-14T01:13:21;3.83;;;3.63;;
18510;SDS011;9384;48.044;11.616;2022-08-14T01:15:50;4.00;;;3.63;;
18510;SDS011;9384;48.044;11.616;2022-08-14T01:18:18;4.07;;;3.87;;
18510;SDS011;9384;48.044;11.616;2022-08-14T01:21:03;4.00;;;3.80;;
18510;SDS011;9384;48.044;11.616;2022-08-14T01:23:38;4.13;;;3.87;;
18510;SDS011;9384;48.044;11.616;2022-08-14T01:26:05;4.13;;;3.83;;
18510;SDS011;9384;48.044;11.616;2022-08-14T01:28:33;4.17;;;3.87;;
18510;SDS011;9384;48.044;11.616;2022-08-14T01:31:02;4.53;;;4.30;;
18510;SDS011;9384;48.044;11.616;2022-08-14T01:33:30;4.00;;;3.80;;
18510;SDS011;9384;48.044;11.616;2022-08-14T01:35:58;5.13;;;4.60;;
18510;SDS011;9384;48.044;11.616;2022-08-14T01:38:25;4.27;;;3.70;;
18510;SDS011;9384;48.044;11.616;2022-08-14T01:41:00;4.13;;;3.93;;
18510;SDS011;9384;48.044;11.616;2022-08-14T01:43:28;5.23;;;4.27;;
18510;SDS011;9384;48.044;11.616;2022-08-14T01:45:56;4.93;;;4.50;;
18510;SDS011;9384;48.044;11.616;2022-08-14T01:48:24;4.17;;;3.87;;
18510;SDS011;9384;48.044;11.616;2022-08-14T01:50:57;4.20;;;3.90;;
18510;SDS011;9384;48.044;11.616;2022-08-14T01:53:26;4.10;;;3.87;;
18510;SDS011;9384;48.044;11.616;2022-08-14T01:55:56;4.20;;;3.90;;
18510;SDS011;9384;48.044;11.616;2022-08-14T01:58:26;4.87;;;4.53;;
18510;SDS011;9384;48.044;11.616;2022-08-14T02:00:53;5.17;;;4.60;;
18510;SDS011;9384;48.044;11.616;2022-08-14T02:03:21;4.97;;;4.63;;
18510;SDS011;9384;48.044;11.616;2022-08-14T02:05:48;4.73;;;4.33;;
18510;SDS011;9384;48.044;11.616;2022-08-14T02:08:15;5.53;;;4.20;;
18510;SDS011;9384;48.044;11.616;2022-08-14T02:10:43;5.23;;;4.83;;
18510;SDS011;9384;48.044;11.616;2022-08-14T02:13:32;4.30;;;3.93;;
18510;SDS011;9384;48.044;11.616;2022-08-14T02:15:59;4.10;;;3.90;;
18510;SDS011;9384;48.044;11.616;2022-08-14T02:18:27;4.57;;;4.33;;
18510;SDS011;9384;48.044;11.616;2022-08-14T02:20:54;4.83;;;4.20;;
18510;SDS011;9384;48.044;11.616;2022-08-14T02:23:22;6.13;;;4.90;;
18510;SDS011;9384;48.044;11.616;2022-08-14T02:25:49;4.73;;;4.43;;
18510;SDS011;9384;48.044;11.616;2022-08-14T02:28:17;5.03;;;4.63;;
18510;SDS011;9384;48.044;11.616;2022-08-14T02:30:45;4.70;;;4.40;;
18510;SDS011;9384;48.044;11.616;2022-08-14T02:33:13;4.77;;;4.37;;
18510;SDS011;9384;48.044;11.616;2022-08-14T02:35:40;4.33;;;4.03;;
18510;SDS011;9384;48.044;11.616;2022-08-14T02:38:07;4.03;;;3.83;;
18510;SDS011;9384;48.044;11.616;2022-08-14T02:40:35;4.73;;;4.40;;
18510;SDS011;9384;48.044;11.616;2022-08-14T02:43:03;4.30;;;4.00;;
18510;SDS011;9384;48.044;11.616;2022-08-14T02:45:31;4.33;;;4.07;;
18510;SDS011;9384;48.044;11.616;2022-08-14T02:48:00;5.53;;;4.93;;
18510;SDS011;9384;48.044;11.616;2022-08-14T02:50:27;4.67;;;4.37;;
18510;SDS011;9384;48.044;11.616;2022-08-14T02:52:54;4.10;;;3.90;;
18510;SDS011;9384;48.044;11.616;2022-08-14T02:55:22;4.50;;;4.30;;
18510;SDS011;9384;48.044;11.616;2022-08-14T02:57:49;4.57;;;4.27;;
18510;SDS011;9384;48.044;11.616;2022-08-14T03:00:17;4.20;;;4.00;;
18510;SDS011;9384;48.044;11.616;2022-08-14T03:02:45;4.97;;;4.57;;
18510;SDS011;9384;48.044;11.616;2022-08-14T03:05:16;4.47;;;4.17;;
18510;SDS011;9384;48.044;11.616;2022-08-14T03:07:44;4.00;;;3.80;;
18510;SDS011;9384;48.044;11.616;2022-08-14T03:10:11;4.33;;;3.93;;
18510;SDS011;9384;48.044;11.616;2022-08-14T03:12:39;4.90;;;4.50;;
18510;SDS011;9384;48.044;11.616;2022-08-14T03:15:06;4.83;;;4.40;;
18510;SDS011;9384;48.044;11.616;2022-08-14T03:17:37;3.83;;;3.63;;
18510;SDS011;9384;48.044;11.616;2022-08-14T03:20:07;4.33;;;4.03;;
18510;SDS011;9384;48.044;11.616;2022-08-14T03:22:36;4.00;;;3.80;;
18510;SDS011;9384;48.044;11.616;2022-08-14T03:25:04;4.70;;;4.40;;
18510;SDS011;9384;48.044;11.616;2022-08-14T03:27:31;4.33;;;4.13;;
18510;SDS011;9384;48.044;11.616;2022-08-14T03:29:58;4.70;;;4.40;;
18510;SDS011;9384;48.044;11.616;2022-08-14T03:32:28;3.87;;;3.67;;
18510;SDS011;9384;48.044;11.616;2022-08-14T03:34:57;4.33;;;4.13;;
18510;SDS011;9384;48.044;11.616;2022-08-14T03:37:24;4.17;;;3.97;;
18510;SDS011;9384;48.044;11.616;2022-08-14T03:39:53;4.10;;;3.90;;
18510;SDS011;9384;48.044;11.616;2022-08-14T03:42:20;4.27;;;3.93;;
18510;SDS011;9384;48.044;11.616;2022-08-14T03:44:49;8.33;;;4.13;;
18510;SDS011;9384;48.044;11.616;2022-08-14T03:47:16;4.80;;;4.50;;
18510;SDS011;9384;48.044;11.616;2022-08-14T03:49:43;4.53;;;4.27;;
18510;SDS011;9384;48.044;11.616;2022-08-14T03:52:11;5.97;;;4.67;;
18510;SDS011;9384;48.044;11.616;2022-08-14T03:54:38;4.57;;;4.30;;
18510;SDS011;9384;48.044;11.616;2022-08-14T03:57:07;5.10;;;4.73;;
18510;SDS011;9384;48.044;11.616;2022-08-14T03:59:35;5.47;;;4.60;;
18510;SDS011;9384;48.044;11.616;2022-08-14T04:02:02;5.47;;;4.90;;
18510;SDS011;9384;48.044;11.616;2022-08-14T04:04:30;5.10;;;4.77;;
18510;SDS011;9384;48.044;11.616;2022-08-14T04:06:58;6.17;;;4.57;;
18510;SDS011;9384;48.044;11.616;2022-08-14T04:09:25;5.43;;;5.03;;
18510;SDS011;9384;48.044;11.616;2022-08-14T04:11:53;4.80;;;4.50;;
18510;SDS011;9384;48.044;11.616;2022-08-14T04:14:22;5.17;;;4.67;;
18510;SDS011;9384;48.044;11.616;2022-08-14T04:16:49;6.23;;;4.80;;
18510;SDS011;9384;48.044;11.616;2022-08-14T04:19:16;5.03;;;4.63;;
18510;SDS011;9384;48.044;11.616;2022-08-14T04:21:48;5.43;;;5.00;;
18510;SDS011;9384;48.044;11.616;2022-08-14T04:24:15;5.20;;;4.90;;
18510;SDS011;9384;48.044;11.616;2022-08-14T04:26:42;5.50;;;5.20;;
18510;SDS011;9384;48.044;11.616;2022-08-14T04:29:10;5.07;;;4.77;;
18510;SDS011;9384;48.044;11.616;2022-08-14T04:31:39;4.83;;;4.40;;
18510;SDS011;9384;48.044;11.616;2022-08-14T04:34:06;5.43;;;5.03;;
18510;SDS011;9384;48.044;11.616;2022-08-14T04:36:34;5.23;;;4.83;;
18510;SDS011;9384;48.044;11.616;2022-08-14T04:39:21;4.70;;;4.50;;
18510;SDS011;9384;48.044;11.616;2022-08-14T04:42:06;5.50;;;4.20;;
18510;SDS011;9384;48.044;11.616;2022-08-14T04:44:50;4.13;;;3.93;;
18510;SDS011;9384;48.044;11.616;2022-08-14T04:47:19;4.73;;;4.37;;
18510;SDS011;9384;48.044;11.616;2022-08-14T04:50:04;4.53;;;4.23;;
18510;SDS011;9384;48.044;11.616;2022-08-14T04:52:32;4.23;;;4.00;;
18510;SDS011;9384;48.044;11.616;2022-08-14T04:54:59;5.97;;;4.33;;
18510;SDS011;9384;48.044;11.616;2022-08-14T04:57:27;5.00;;;4.60;;
18510;SDS011;9384;48.044;11.616;2022-08-14T04:59:55;5.00;;;4.70;;
18510;SDS011;9384;48.044;11.616;2022-08-14T05:02:23;4.70;;;4.33;;
18510;SDS011;9384;48.044;11.616;2022-08-14T05:04:52;6.40;;;4.73;;
18510;SDS011;9384;48.044;11.616;2022-08-14T05:07:19;4.67;;;4.10;;
18510;SDS011;9384;48.044;11.616;2022-08-14T05:09:46;5.23;;;4.00;;
18510;SDS011;9384;48.044;11.616;2022-08-14T05:12:13;5.40;;;4.30;;
18510;SDS011;9384;48.044;11.616;2022-08-14T05:14:41;4.93;;;4.57;;
18510;SDS011;9384;48.044;11.616;2022-08-14T05:17:09;4.67;;;4.27;;
18510;SDS011;9384;48.044;11.616;2022-08-14T05:19:38;4.77;;;4.40;;
18510;SDS011;9384;48.044;11.616;2022-08-14T05:22:06;5.33;;;4.13;;
18510;SDS011;9384;48.044;11.616;2022-08-14T05:24:33;5.27;;;3.60;;
18510;SDS011;9384;48.044;11.616;2022-08-14T05:27:01;4.50;;;4.07;;
18510;SDS011;9384;48.044;11.616;2022-08-14T05:29:28;3.97;;;3.77;;
18510;SDS011;9384;48.044;11.616;2022-08-14T05:31:56;5.00;;;4.20;;
18510;SDS011;9384;48.044;11.616;2022-08-14T05:34:25;4.10;;;3.90;;
18510;SDS011;9384;48.044;11.616;2022-08-14T05:36:55;4.60;;;4.20;;
18510;SDS011;9384;48.044;11.616;2022-08-14T05:39:22;4.30;;;4.07;;
18510;SDS011;9384;48.044;11.616;2022-08-14T05:41:50;4.00;;;3.70;;
18510;SDS011;9384;48.044;11.616;2022-08-14T05:44:17;5.07;;;4.30;;
18510;SDS011;9384;48.044;11.616;2022-08-14T05:46:45;3.73;;;3.63;;
18510;SDS011;9384;48.044;11.616;2022-08-14T05:49:12;5.73;;;4.10;;
18510;SDS011;9384;48.044;11.616;2022-08-14T05:51:39;4.60;;;4.30;;
18510;SDS011;9384;48.044;11.616;2022-08-14T05:54:10;4.53;;;4.27;;
18510;SDS011;9384;48.044;11.616;2022-08-14T05:56:37;4.37;;;4.07;;
18510;SDS011;9384;48.044;11.616;2022-08-14T05:59:04;9.17;;;4.70;;
18510;SDS011;9384;48.044;11.616;2022-08-14T06:01:31;4.53;;;4.30;;
18510;SDS011;9384;48.044;11.616;2022-08-14T06:03:59;4.50;;;4.17;;
18510;SDS011;9384;48.044;11.616;2022-08-14T06:06:26;4.43;;;4.10;;
18510;SDS011;9384;48.044;11.616;2022-08-14T06:08:53;4.50;;;4.20;;
18510;SDS011;9384;48.044;11.616;2022-08-14T06:11:22;4.20;;;3.93;;
18510;SDS011;9384;48.044;11.616;2022-08-14T06:13:49;4.43;;;4.03;;
18510;SDS011;9384;48.044;11.616;2022-08-14T06:16:16;3.60;;;3.37;;
18510;SDS011;9384;48.044;11.616;2022-08-14T06:18:44;3.90;;;3.70;;
18510;SDS011;9384;48.044;11.616;2022-08-14T06:21:12;3.77;;;3.57;;
18510;SDS011;9384;48.044;11.616;2022-08-14T06:23:39;3.83;;;3.63;;
18510;SDS011;9384;48.044;11.616;2022-08-14T06:26:07;4.13;;;3.73;;
18510;SDS011;9384;48.044;11.616;2022-08-14T06:28:35;3.57;;;3.37;;
18510;SDS011;9384;48.044;11.616;2022-08-14T06:31:03;3.80;;;3.60;;
18510;SDS011;9384;48.044;11.616;2022-08-14T06:33:30;4.00;;;3.70;;
18510;SDS011;9384;48.044;11.616;2022-08-14T06:35:57;3.40;;;3.03;;
18510;SDS011;9384;48.044;11.616;2022-08-14T06:38:24;3.90;;;3.20;;
18510;SDS011;9384;48.044;11.616;2022-08-14T06:40:51;3.30;;;3.20;;
18510;SDS011;9384;48.044;11.616;2022-08-14T06:43:19;3.30;;;3.20;;
18510;SDS011;9384;48.044;11.616;2022-08-14T06:45:48;3.47;;;3.37;;
18510;SDS011;9384;48.044;11.616;2022-08-14T06:48:17;4.10;;;2.90;;
18510;SDS011;9384;48.044;11.616;2022-08-14T06:50:45;4.20;;;3.33;;
18510;SDS011;9384;48.044;11.616;2022-08-14T06:53:12;3.43;;;2.80;;
18510;SDS011;9384;48.044;11.616;2022-08-14T06:55:41;2.93;;;2.80;;
18510;SDS011;9384;48.044;11.616;2022-08-14T06:58:10;4.13;;;3.40;;
18510;SDS011;9384;48.044;11.616;2022-08-14T07:00:37;2.93;;;2.73;;
18510;SDS011;9384;48.044;11.616;2022-08-14T07:03:06;3.10;;;3.00;;
18510;SDS011;9384;48.044;11.616;2022-08-14T07:05:50;2.97;;;2.87;;
18510;SDS011;9384;48.044;11.616;2022-08-14T07:08:18;3.13;;;2.97;;
18510;SDS011;9384;48.044;11.616;2022-08-14T07:10:47;3.00;;;2.90;;
18510;SDS011;9384;48.044;11.616;2022-08-14T07:13:14;3.20;;;2.90;;
18510;SDS011;9384;48.044;11.616;2022-08-14T07:15:43;3.33;;;3.10;;
18510;SDS011;9384;48.044;11.616;2022-08-14T07:18:12;2.73;;;2.67;;
18510;SDS011;9384;48.044;11.616;2022-08-14T07:20:40;3.90;;;3.20;;
18510;SDS011;9384;48.044;11.616;2022-08-14T07:23:08;3.13;;;3.03;;
18510;SDS011;9384;48.044;11.616;2022-08-14T07:25:36;3.20;;;3.10;;
18510;SDS011;9384;48.044;11.616;2022-08-14T07:28:10;3.20;;;3.10;;
18510;SDS011;9384;48.044;11.616;2022-08-14T07:30:37;3.40;;;3.20;;
18510;SDS011;9384;48.044;11.616;2022-08-14T07:33:05;2.97;;;2.87;;
18510;SDS011;9384;48.044;11.616;2022-08-14T07:35:34;3.00;;;2.90;;
18510;SDS011;9384;48.044;11.616;2022-08-14T07:38:02;2.70;;;2.60;;
18510;SDS011;9384;48.044;11.616;2022-08-14T07:40:29;3.93;;;2.67;;
18510;SDS011;9384;48.044;11.616;2022-08-14T07:42:56;2.50;;;2.50;;
18510;SDS011;9384;48.044;11.616;2022-08-14T07:45:24;2.43;;;2.43;;
18510;SDS011;9384;48.044;11.616;2022-08-14T07:47:52;2.97;;;2.87;;
18510;SDS011;9384;48.044;11.616;2022-08-14T07:50:22;3.30;;;3.00;;
18510;SDS011;9384;48.044;11.616;2022-08-14T07:52:50;3.17;;;3.07;;
18510;SDS011;9384;48.044;11.616;2022-08-14T07:55:18;3.03;;;2.80;;
18510;SDS011;9384;48.044;11.616;2022-08-14T07:57:46;2.80;;;2.60;;
18510;SDS011;9384;48.044;11.616;2022-08-14T08:00:15;3.03;;;2.83;;
18510;SDS011;9384;48.044;11.616;2022-08-14T08:02:43;3.23;;;2.60;;
18510;SDS011;9384;48.044;11.616;2022-08-14T08:05:11;2.80;;;2.60;;
18510;SDS011;9384;48.044;11.616;2022-08-14T08:07:39;2.70;;;2.60;;
18510;SDS011;9384;48.044;11.616;2022-08-14T08:10:08;6.03;;;2.97;;
18510;SDS011;9384;48.044;11.616;2022-08-14T08:12:54;2.90;;;2.80;;
18510;SDS011;9384;48.044;11.616;2022-08-14T08:15:22;3.23;;;3.03;;
18510;SDS011;9384;48.044;11.616;2022-08-14T08:17:50;2.90;;;2.70;;
18510;SDS011;9384;48.044;11.616;2022-08-14T08:20:17;2.77;;;2.73;;
18510;SDS011;9384;48.044;11.616;2022-08-14T08:22:44;2.90;;;2.80;;
18510;SDS011;9384;48.044;11.616;2022-08-14T08:25:13;2.70;;;2.60;;
18510;SDS011;9384;48.044;11.616;2022-08-14T08:27:41;2.40;;;2.30;;
18510;SDS011;9384;48.044;11.616;2022-08-14T08:30:08;2.40;;;2.40;;
18510;SDS011;9384;48.044;11.616;2022-08-14T08:32:39;2.90;;;2.80;;
18510;SDS011;9384;48.044;11.616;2022-08-14T08:35:09;3.37;;;2.50;;
18510;SDS011;9384;48.044;11.616;2022-08-14T08:37:36;2.97;;;2.77;;
18510;SDS011;9384;48.044;11.616;2022-08-14T08:40:04;2.90;;;2.67;;
18510;SDS011;9384;48.044;11.616;2022-08-14T08:42:32;3.10;;;2.67;;
18510;SDS011;9384;48.044;11.616;2022-08-14T08:45:00;2.70;;;2.60;;
18510;SDS011;9384;48.044;11.616;2022-08-14T08:47:36;2.80;;;2.70;;
18510;SDS011;9384;48.044;11.616;2022-08-14T08:50:14;2.93;;;2.73;;
18510;SDS011;9384;48.044;11.616;2022-08-14T08:52:45;2.97;;;2.80;;
18510;SDS011;9384;48.044;11.616;2022-08-14T08:55:14;3.40;;;3.10;;
18510;SDS011;9384;48.044;11.616;2022-08-14T08:57:43;2.70;;;2.60;;
18510;SDS011;9384;48.044;11.616;2022-08-14T09:00:14;3.00;;;2.80;;
18510;SDS011;9384;48.044;11.616;2022-08-14T09:02:51;2.87;;;2.77;;
18510;SDS011;9384;48.044;11.616;2022-08-14T09:05:21;2.83;;;2.73;;
18510;SDS011;9384;48.044;11.616;2022-08-14T09:07:48;2.50;;;2.40;;
18510;SDS011;9384;48.044;11.616;2022-08-14T09:10:16;2.93;;;2.80;;
18510;SDS011;9384;48.044;11.616;2022-08-14T09:12:44;2.67;;;2.57;;
18510;SDS011;9384;48.044;11.616;2022-08-14T09:15:12;3.00;;;2.90;;
18510;SDS011;9384;48.044;11.616;2022-08-14T09:17:39;5.43;;;3.10;;
18510;SDS011;9384;48.044;11.616;2022-08-14T09:20:07;3.10;;;2.97;;
18510;SDS011;9384;48.044;11.616;2022-08-14T09:22:34;2.93;;;2.83;;
18510;SDS011;9384;48.044;11.616;2022-08-14T09:25:02;2.93;;;2.83;;
18510;SDS011;9384;48.044;11.616;2022-08-14T09:27:30;2.70;;;2.60;;
18510;SDS011;9384;48.044;11.616;2022-08-14T09:29:59;2.60;;;2.50;;
18510;SDS011;9384;48.044;11.616;2022-08-14T09:32:28;2.73;;;2.63;;
18510;SDS011;9384;48.044;11.616;2022-08-14T09:34:59;3.30;;;3.10;;
18510;SDS011;9384;48.044;11.616;2022-08-14T09:37:31;2.90;;;2.70;;
18510;SDS011;9384;48.044;11.616;2022-08-14T09:40:03;3.57;;;3.27;;
18510;SDS011;9384;48.044;11.616;2022-08-14T09:42:39;3.00;;;2.90;;
18510;SDS011;9384;48.044;11.616;2022-08-14T09:45:13;3.10;;;2.90;;
18510;SDS011;9384;48.044;11.616;2022-08-14T09:47:41;3.07;;;2.87;;
18510;SDS011;9384;48.044;11.616;2022-08-14T09:50:19;3.33;;;3.13;;
18510;SDS011;9384;48.044;11.616;2022-08-14T09:52:48;3.07;;;2.90;;
18510;SDS011;9384;48.044;11.616;2022-08-14T09:55:15;3.47;;;2.92;;
18510;SDS011;9384;48.044;11.616;2022-08-14T09:57:43;2.92;;;2.83;;
18510;SDS011;9384;48.044;11.616;2022-08-14T10:00:13;2.92;;;2.83;;
18510;SDS011;9384;48.044;11.616;2022-08-14T10:02:50;3.08;;;2.97;;
18510;SDS011;9384;48.044;11.616;2022-08-14T10:05:26;2.80;;;2.70;;
18510;SDS011;9384;48.044;11.616;2022-08-14T10:07:55;2.97;;;2.88;;
18510;SDS011;9384;48.044;11.616;2022-08-14T10:10:26;2.42;;;2.22;;
18510;SDS011;9384;48.044;11.616;2022-08-14T10:12:54;2.10;;;2.10;;
18510;SDS011;9384;48.044;11.616;2022-08-14T10:15:24;3.25;;;2.15;;
18510;SDS011;9384;48.044;11.616;2022-08-14T10:18:06;3.20;;;2.58;;
18510;SDS011;9384;48.044;11.616;2022-08-14T10:20:34;2.92;;;2.70;;
18510;SDS011;9384;48.044;11.616;2022-08-14T10:23:08;2.35;;;2.25;;
18510;SDS011;9384;48.044;11.616;2022-08-14T10:25:39;3.58;;;2.47;;
18510;SDS011;9384;48.044;11.616;2022-08-14T10:28:07;2.60;;;2.50;;
18510;SDS011;9384;48.044;11.616;2022-08-14T10:30:40;3.55;;;2.45;;
18510;SDS011;9384;48.044;11.616;2022-08-14T10:33:21;3.05;;;2.30;;
18510;SDS011;9384;48.044;11.616;2022-08-14T10:35:49;2.28;;;2.15;;
18510;SDS011;9384;48.044;11.616;2022-08-14T10:38:24;3.22;;;3.03;;
18510;SDS011;9384;48.044;11.616;2022-08-14T10:40:51;2.28;;;2.28;;
18510;SDS011;9384;48.044;11.616;2022-08-14T10:43:19;2.25;;;2.08;;
18510;SDS011;9384;48.044;11.616;2022-08-14T10:45:55;2.53;;;2.30;;
18510;SDS011;9384;48.044;11.616;2022-08-14T10:48:24;2.17;;;2.08;;
18510;SDS011;9384;48.044;11.616;2022-08-14T10:50:51;2.95;;;2.30;;
18510;SDS011;9384;48.044;11.616;2022-08-14T10:53:28;2.13;;;2.10;;
18510;SDS011;9384;48.044;11.616;2022-08-14T10:55:57;2.55;;;1.92;;
18510;SDS011;9384;48.044;11.616;2022-08-14T10:58:26;1.80;;;1.80;;
18510;SDS011;9384;48.044;11.616;2022-08-14T11:00:55;2.22;;;2.10;;
18510;SDS011;9384;48.044;11.616;2022-08-14T11:03:23;2.28;;;1.85;;
18510;SDS011;9384;48.044;11.616;2022-08-14T11:05:51;3.72;;;1.80;;
18510;SDS011;9384;48.044;11.616;2022-08-14T11:08:28;3.00;;;2.08;;
18510;SDS011;9384;48.044;11.616;2022-08-14T11:10:56;4.22;;;2.10;;
18510;SDS011;9384;48.044;11.616;2022-08-14T11:13:26;1.90;;;1.80;;
18510;SDS011;9384;48.044;11.616;2022-08-14T11:15:56;1.98;;;1.98;;
18510;SDS011;9384;48.044;11.616;2022-08-14T11:18:24;1.70;;;1.70;;
18510;SDS011;9384;48.044;11.616;2022-08-14T11:20:54;1.70;;;1.70;;
18510;SDS011;9384;48.044;11.616;2022-08-14T11:23:24;1.92;;;1.83;;
18510;SDS011;9384;48.044;11.616;2022-08-14T11:25:52;1.80;;;1.80;;
18510;SDS011;9384;48.044;11.616;2022-08-14T11:28:22;1.67;;;1.58;;
18510;SDS011;9384;48.044;11.616;2022-08-14T11:30:50;1.70;;;1.70;;
18510;SDS011;9384;48.044;11.616;2022-08-14T11:33:22;1.77;;;1.77;;
18510;SDS011;9384;48.044;11.616;2022-08-14T11:35:50;1.40;;;1.40;;
18510;SDS011;9384;48.044;11.616;2022-08-14T11:38:17;1.40;;;1.40;;
18510;SDS011;9384;48.044;11.616;2022-08-14T11:40:44;2.10;;;1.98;;
18510;SDS011;9384;48.044;11.616;2022-08-14T11:43:11;1.70;;;1.70;;
18510;SDS011;9384;48.044;11.616;2022-08-14T11:45:38;1.60;;;1.60;;
18510;SDS011;9384;48.044;11.616;2022-08-14T11:48:16;1.65;;;1.55;;
18510;SDS011;9384;48.044;11.616;2022-08-14T11:50:46;1.40;;;1.33;;
18510;SDS011;9384;48.044;11.616;2022-08-14T11:53:17;1.52;;;1.52;;
18510;SDS011;9384;48.044;11.616;2022-08-14T11:55:47;1.48;;;1.48;;
18510;SDS011;9384;48.044;11.616;2022-08-14T11:58:23;1.52;;;1.52;;
18510;SDS011;9384;48.044;11.616;2022-08-14T12:00:52;1.80;;;1.75;;
18510;SDS011;9384;48.044;11.616;2022-08-14T12:03:21;1.80;;;1.70;;
18510;SDS011;9384;48.044;11.616;2022-08-14T12:05:49;2.92;;;1.80;;
18510;SDS011;9384;48.044;11.616;2022-08-14T12:08:16;1.85;;;1.80;;
18510;SDS011;9384;48.044;11.616;2022-08-14T12:10:43;1.83;;;1.83;;
18510;SDS011;9384;48.044;11.616;2022-08-14T12:13:11;1.65;;;1.55;;
18510;SDS011;9384;48.044;11.616;2022-08-14T12:15:39;2.17;;;1.90;;
18510;SDS011;9384;48.044;11.616;2022-08-14T12:18:07;2.00;;;1.90;;
18510;SDS011;9384;48.044;11.616;2022-08-14T12:20:35;2.00;;;1.90;;
18510;SDS011;9384;48.044;11.616;2022-08-14T12:23:18;3.88;;;1.80;;
18510;SDS011;9384;48.044;11.616;2022-08-14T12:25:46;1.98;;;1.90;;
18510;SDS011;9384;48.044;11.616;2022-08-14T12:28:13;1.63;;;1.63;;
18510;SDS011;9384;48.044;11.616;2022-08-14T12:30:41;1.83;;;1.73;;
18510;SDS011;9384;48.044;11.616;2022-08-14T12:33:19;1.73;;;1.63;;
18510;SDS011;9384;48.044;11.616;2022-08-14T12:35:49;2.53;;;1.50;;
18510;SDS011;9384;48.044;11.616;2022-08-14T12:38:29;1.70;;;1.70;;
18510;SDS011;9384;48.044;11.616;2022-08-14T12:40:57;1.58;;;1.58;;
18510;SDS011;9384;48.044;11.616;2022-08-14T12:43:24;3.40;;;1.50;;
18510;SDS011;9384;48.044;11.616;2022-08-14T12:45:51;1.85;;;1.52;;
18510;SDS011;9384;48.044;11.616;2022-08-14T12:48:20;1.95;;;1.80;;
18510;SDS011;9384;48.044;11.616;2022-08-14T12:50:48;1.35;;;1.35;;
18510;SDS011;9384;48.044;11.616;2022-08-14T12:53:16;1.23;;;1.23;;
18510;SDS011;9384;48.044;11.616;2022-08-14T12:55:45;1.48;;;1.48;;
18510;SDS011;9384;48.044;11.616;2022-08-14T12:58:25;1.58;;;1.50;;
18510;SDS011;9384;48.044;11.616;2022-08-14T13:00:53;1.35;;;1.35;;
18510;SDS011;9384;48.044;11.616;2022-08-14T13:03:22;1.52;;;1.50;;
18510;SDS011;9384;48.044;11.616;2022-08-14T13:05:50;1.60;;;1.60;;
18510;SDS011;9384;48.044;11.616;2022-08-14T13:08:18;1.65;;;1.65;;
18510;SDS011;9384;48.044;11.616;2022-08-14T13:10:47;1.42;;;1.42;;
18510;SDS011;9384;48.044;11.616;2022-08-14T13:13:14;1.70;;;1.60;;
18510;SDS011;9384;48.044;11.616;2022-08-14T13:15:42;1.40;;;1.40;;
18510;SDS011;9384;48.044;11.616;2022-08-14T13:18:10;2.00;;;1.90;;
18510;SDS011;9384;48.044;11.616;2022-08-14T13:20:39;1.60;;;1.60;;
18510;SDS011;9384;48.044;11.616;2022-08-14T13:23:10;1.50;;;1.50;;
18510;SDS011;9384;48.044;11.616;2022-08-14T13:25:40;1.63;;;1.60;;
18510;SDS011;9384;48.044;11.616;2022-08-14T13:28:08;1.67;;;1.67;;
18510;SDS011;9384;48.044;11.616;2022-08-14T13:30:37;2.05;;;1.60;;
18510;SDS011;9384;48.044;11.616;2022-08-14T13:33:09;1.98;;;1.80;;
18510;SDS011;9384;48.044;11.616;2022-08-14T13:35:38;1.60;;;1.60;;
18510;SDS011;9384;48.044;11.616;2022-08-14T13:38:09;2.13;;;1.65;;
18510;SDS011;9384;48.044;11.616;2022-08-14T13:40:36;1.40;;;1.40;;
18510;SDS011;9384;48.044;11.616;2022-08-14T13:43:05;1.58;;;1.58;;
18510;SDS011;9384;48.044;11.616;2022-08-14T13:45:33;1.65;;;1.55;;
18510;SDS011;9384;48.044;11.616;2022-08-14T13:48:00;1.58;;;1.58;;
18510;SDS011;9384;48.044;11.616;2022-08-14T13:50:27;1.98;;;1.67;;
18510;SDS011;9384;48.044;11.616;2022-08-14T13:52:54;1.52;;;1.52;;
18510;SDS011;9384;48.044;11.616;2022-08-14T13:55:26;1.80;;;1.70;;
18510;SDS011;9384;48.044;11.616;2022-08-14T13:57:56;1.80;;;1.70;;
18510;SDS011;9384;48.044;11.616;2022-08-14T14:00:25;1.77;;;1.60;;
18510;SDS011;9384;48.044;11.616;2022-08-14T14:02:52;1.85;;;1.38;;
18510;SDS011;9384;48.044;11.616;2022-08-14T14:05:20;1.95;;;1.42;;
18510;SDS011;9384;48.044;11.616;2022-08-14T14:07:50;1.50;;;1.50;;
18510;SDS011;9384;48.044;11.616;2022-08-14T14:10:18;2.25;;;1.70;;
18510;SDS011;9384;48.044;11.616;2022-08-14T14:12:47;1.73;;;1.73;;
18510;SDS011;9384;48.044;11.616;2022-08-14T14:15:15;1.60;;;1.60;;
18510;SDS011;9384;48.044;11.616;2022-08-14T14:17:45;1.55;;;1.55;;
18510;SDS011;9384;48.044;11.616;2022-08-14T14:20:14;2.15;;;1.80;;
18510;SDS011;9384;48.044;11.616;2022-08-14T14:22:44;2.13;;;1.92;;
18510;SDS011;9384;48.044;11.616;2022-08-14T14:25:13;1.80;;;1.70;;
18510;SDS011;9384;48.044;11.616;2022-08-14T14:27:42;1.50;;;1.50;;
18510;SDS011;9384;48.044;11.616;2022-08-14T14:30:11;1.70;;;1.70;;
18510;SDS011;9384;48.044;11.616;2022-08-14T14:32:39;1.60;;;1.60;;
18510;SDS011;9384;48.044;11.616;2022-08-14T14:35:10;1.70;;;1.60;;
18510;SDS011;9384;48.044;11.616;2022-08-14T14:37:40;1.58;;;1.58;;
18510;SDS011;9384;48.044;11.616;2022-08-14T14:40:08;1.77;;;1.67;;
18510;SDS011;9384;48.044;11.616;2022-08-14T14:42:40;1.60;;;1.60;;
18510;SDS011;9384;48.044;11.616;2022-08-14T14:45:11;1.88;;;1.85;;
18510;SDS011;9384;48.044;11.616;2022-08-14T14:47:39;2.00;;;1.90;;
18510;SDS011;9384;48.044;11.616;2022-08-14T14:50:09;2.70;;;2.60;;
18510;SDS011;9384;48.044;11.616;2022-08-14T14:52:37;1.85;;;1.85;;
18510;SDS011;9384;48.044;11.616;2022-08-14T14:55:04;1.80;;;1.80;;
18510;SDS011;9384;48.044;11.616;2022-08-14T14:57:33;1.60;;;1.50;;
18510;SDS011;9384;48.044;11.616;2022-08-14T15:00:00;2.10;;;2.00;;
18510;SDS011;9384;48.044;11.616;2022-08-14T15:02:31;1.60;;;1.60;;